McCarran, Nevada
Current Conditions -  °F | °C
As of 2:55 PM on Friday 28 Nov 2014 (Local Time) from KRNO Reporting Station
Scattered Clouds Scattered Clouds  
Wind Chill: 65°   Ceiling: Unl
Heat Index: 65°   Visibility: 10mi
Dew Point: -7°   Wind: 20mph
Humidity: 5%   Direction: 230°SW
Pressure: 29.85"   Gusts: 31mph
Location:  39.5403°N, 119.672°W
Report Text: KRNO 282255Z 23017G27KT 10SM FEW090 FEW120 SCT150 18/M22 A2985 RMK AO2 PK WND 24041/2202 SLP079 VIRGA ACSL DSNT N-NE SE W T01831217
Loading
Personal Weather Stations






























Interactive Weather Map New forecast layout! Learn more

10-Day Weather Forecast

Advertisements
Track Severe Weather on mobile